Time;durP1;ratioP1;P1;durP2;ratioP2;P2;SDS_P1;SDS_P2;PMS_P1;PMS_P2;Temp;Humidity;BMP_temperature;BMP_pressure;BME280_temperature;BME280_humidity;BME280_pressure;Samples;Min_cycle;Max_cycle;Signal;HPM_P1;HPM_P2
2023/02/13 00:00:22;;;;;;;88.38;55.20;;;3.00;99.90;;;;;;5012752;28;20041;-89
2023/02/13 00:02:48;;;;;;;87.95;52.78;;;2.80;99.90;;;;;;5011559;28;20560;-88
2023/02/13 00:05:13;;;;;;;94.97;55.03;;;2.50;99.90;;;;;;5011172;28;20022;-89
2023/02/13 00:07:39;;;;;;;85.75;53.83;;;2.50;99.90;;;;;;5011450;28;20029;-89
2023/02/13 00:10:06;;;;;;;89.80;53.97;;;2.30;99.90;;;;;;5012827;28;20105;-88
2023/02/13 00:12:31;;;;;;;93.18;55.55;;;2.30;99.90;;;;;;5012771;28;20014;-88
2023/02/13 00:14:58;;;;;;;98.25;56.40;;;2.80;99.90;;;;;;5012530;28;20030;-88
2023/02/13 00:17:24;;;;;;;91.22;52.33;;;2.70;99.90;;;;;;5012141;28;20068;-88
2023/02/13 00:19:50;;;;;;;92.95;53.25;;;2.50;99.90;;;;;;5016092;28;20030;-88
2023/02/13 00:22:16;;;;;;;84.05;50.35;;;2.00;99.90;;;;;;5015288;28;20026;-88
2023/02/13 00:24:42;;;;;;;85.18;52.75;;;1.90;99.90;;;;;;5015337;28;20560;-88
2023/02/13 00:27:08;;;;;;;91.15;54.90;;;2.30;99.90;;;;;;5016376;28;20088;-88
2023/02/13 00:29:33;;;;;;;90.65;54.75;;;2.50;99.90;;;;;;5016696;28;20030;-88
2023/02/13 00:32:00;;;;;;;84.32;52.20;;;1.90;99.90;;;;;;5023486;28;20122;-88
2023/02/13 00:34:26;;;;;;;84.65;51.47;;;1.80;99.90;;;;;;5035724;28;20040;-88
2023/02/13 00:36:51;;;;;;;83.13;49.60;;;2.20;99.90;;;;;;5034748;28;20389;-88
2023/02/13 00:39:17;;;;;;;81.05;50.05;;;1.90;99.90;;;;;;5034667;28;20042;-88
2023/02/13 00:41:43;;;;;;;78.50;48.78;;;1.50;99.90;;;;;;5034754;28;20079;-88
2023/02/13 00:44:09;;;;;;;81.65;49.03;;;1.50;99.90;;;;;;5035930;28;20449;-89
2023/02/13 00:46:35;;;;;;;77.90;48.47;;;1.50;99.90;;;;;;5034664;28;20025;-88
2023/02/13 00:49:01;;;;;;;78.15;47.88;;;1.40;99.90;;;;;;5035380;28;20104;-89
2023/02/13 00:51:27;;;;;;;79.32;48.00;;;1.80;99.90;;;;;;5035829;28;20148;-88
2023/02/13 00:53:53;;;;;;;79.43;48.60;;;1.20;99.90;;;;;;5035767;28;20079;-88
2023/02/13 00:56:18;;;;;;;84.57;50.65;;;1.30;99.90;;;;;;5017019;28;20033;-89
2023/02/13 00:58:44;;;;;;;85.13;50.03;;;1.90;99.90;;;;;;5016016;28;20418;-88
2023/02/13 01:01:10;;;;;;;81.03;49.28;;;1.70;99.90;;;;;;5015773;28;20037;-88
2023/02/13 01:03:36;;;;;;;81.80;48.78;;;2.30;99.90;;;;;;5015545;28;20033;-88
2023/02/13 01:06:01;;;;;;;79.10;46.33;;;2.20;99.90;;;;;;5015939;28;20080;-89
2023/02/13 01:08:27;;;;;;;79.25;48.83;;;1.80;99.90;;;;;;5015862;28;20034;-88
2023/02/13 01:10:54;;;;;;;79.90;47.95;;;1.90;99.90;;;;;;5015825;28;20045;-89
2023/02/13 01:13:19;;;;;;;78.53;47.42;;;1.80;99.90;;;;;;5014428;28;20033;-88
2023/02/13 01:15:47;;;;;;;77.65;47.25;;;1.50;99.90;;;;;;5015485;28;20030;-88
2023/02/13 01:18:14;;;;;;;77.57;47.90;;;2.10;99.90;;;;;;5013951;28;20109;-88
2023/02/13 01:20:42;;;;;;;77.80;46.95;;;2.10;99.90;;;;;;5014256;28;20390;-89
2023/02/13 01:23:09;;;;;;;79.30;48.58;;;1.50;99.90;;;;;;5015397;28;20029;-88
2023/02/13 01:25:38;;;;;;;81.38;49.10;;;1.60;99.90;;;;;;5014064;28;20087;-88
2023/02/13 01:28:03;;;;;;;78.97;47.25;;;1.90;99.90;;;;;;5015505;28;20058;-89
2023/02/13 01:30:29;;;;;;;80.53;47.58;;;2.20;99.90;;;;;;5014000;28;20060;-88
2023/02/13 01:32:55;;;;;;;78.10;47.25;;;1.90;99.90;;;;;;5050882;28;20489;-88
2023/02/13 01:35:20;;;;;;;79.82;47.50;;;1.50;99.90;;;;;;5054925;28;20628;-88
2023/02/13 01:37:46;;;;;;;77.80;48.83;;;1.90;99.90;;;;;;5036871;28;20048;-89
2023/02/13 01:40:13;;;;;;;82.88;48.42;;;1.90;99.90;;;;;;5037004;28;20516;-89
2023/02/13 01:42:38;;;;;;;81.20;46.67;;;1.60;99.90;;;;;;5036877;28;20032;-88
2023/02/13 01:45:24;;;;;;;80.07;47.90;;;1.80;99.90;;;;;;5054588;28;20025;-89
2023/02/13 01:47:55;;;;;;;74.15;44.45;;;1.40;99.90;;;;;;5054302;28;20053;-88
2023/02/13 01:50:30;;;;;;;79.97;46.97;;;1.30;99.90;;;;;;5054701;28;20029;-89
2023/02/13 01:52:59;;;;;;;79.10;45.20;;;1.30;99.90;;;;;;5054511;28;20059;-88
2023/02/13 01:55:26;;;;;;;76.75;45.80;;;1.20;99.90;;;;;;5025350;28;20048;-88
2023/02/13 01:57:56;;;;;;;79.78;46.88;;;1.50;99.90;;;;;;5016797;28;20036;-88
2023/02/13 02:00:22;;;;;;;77.13;44.78;;;1.30;99.90;;;;;;5017000;28;20406;-88
2023/02/13 02:02:54;;;;;;;72.38;44.70;;;1.10;99.90;;;;;;5034549;28;20489;-89
2023/02/13 02:05:21;;;;;;;72.63;43.53;;;1.70;99.90;;;;;;5034509;28;20030;-88
2023/02/13 02:07:47;;;;;;;76.88;44.50;;;1.40;99.90;;;;;;5034437;28;20091;-88
2023/02/13 02:10:16;;;;;;;69.63;43.53;;;1.50;99.90;;;;;;5016477;28;20440;-89
2023/02/13 02:12:48;;;;;;;70.22;41.08;;;1.30;99.90;;;;;;5034380;28;20104;-89
2023/02/13 02:15:14;;;;;;;69.88;41.03;;;1.30;99.90;;;;;;5033916;28;20033;-89
2023/02/13 02:17:40;;;;;;;70.55;40.42;;;1.10;99.90;;;;;;5016422;28;20034;-89
2023/02/13 02:20:09;;;;;;;68.80;41.97;;;1.40;99.90;;;;;;5016538;28;20044;-88
2023/02/13 02:22:56;;;;;;;68.72;41.25;;;1.30;99.90;;;;;;5034218;28;20021;-88
2023/02/13 02:25:43;;;;;;;68.95;40.25;;;1.30;99.90;;;;;;5016389;28;20030;-89
2023/02/13 02:28:22;;;;;;;62.55;38.35;;;1.30;99.90;;;;;;5034012;28;20083;-89
2023/02/13 02:31:10;;;;;;;66.07;39.22;;;1.70;99.90;;;;;;5033587;28;20069;-88
2023/02/13 02:33:38;;;;;;;64.22;38.78;;;1.20;99.90;;;;;;5033955;28;20490;-88
2023/02/13 02:36:36;;;;;;;64.00;37.63;;;1.20;99.90;;;;;;5015956;28;20029;-89
2023/02/13 02:39:14;;;;;;;63.30;37.78;;;1.40;99.90;;;;;;5033616;28;20073;-88
2023/02/13 02:41:42;;;;;;;67.15;38.33;;;2.10;99.90;;;;;;5032698;28;20028;-88
2023/02/13 02:44:08;;;;;;;63.90;37.15;;;1.80;99.90;;;;;;5033710;28;20029;-89
2023/02/13 02:49:57;;;;;;;68.00;39.08;;;2.50;99.90;;;;;;5015499;28;20113;-88
2023/02/13 02:49:58;;;;;;;68.43;39.50;;;2.40;99.90;;;;;;5033436;28;20068;-89
2023/02/13 02:52:38;;;;;;;67.85;39.13;;;2.10;99.90;;;;;;5033585;28;20108;-89
2023/02/13 02:55:26;;;;;;;59.28;37.53;;;1.60;99.90;;;;;;5033311;28;20060;-88
2023/02/13 03:06:54;;;;;;;77.00;43.88;;;1.40;99.90;;;;;;5033225;28;20021;-88
2023/02/13 03:15:04;;;;;;;75.38;44.55;;;1.30;99.90;;;;;;5033088;28;20052;-88
2023/02/13 03:23:31;;;;;;;64.60;39.17;;;1.30;99.90;;;;;;5033265;28;20124;-88
2023/02/13 03:26:31;;;;;;;65.30;37.90;;;1.50;99.90;;;;;;5033062;28;20034;-88
2023/02/13 03:32:00;;;;;;;64.03;38.30;;;1.60;99.90;;;;;;5040634;28;20102;-88
2023/02/13 03:37:53;;;;;;;64.75;38.00;;;2.10;99.90;;;;;;5052899;28;20029;-88
2023/02/13 03:40:22;;;;;;;64.93;39.70;;;1.80;99.90;;;;;;5053077;28;20052;-88
2023/02/13 03:43:03;;;;;;;70.25;42.80;;;1.40;99.90;;;;;;5052408;28;20025;-88
2023/02/13 03:45:51;;;;;;;68.07;41.00;;;1.30;99.90;;;;;;5052717;28;20025;-88
2023/02/13 03:51:37;;;;;;;65.85;39.97;;;1.80;99.90;;;;;;4991219;28;20034;-88
2023/02/13 04:00:08;;;;;;;66.95;41.22;;;1.80;99.90;;;;;;4971946;28;20046;-88
2023/02/13 04:02:39;;;;;;;69.07;40.45;;;1.30;99.90;;;;;;4971756;28;20400;-88
2023/02/13 04:05:13;;;;;;;67.38;41.13;;;1.20;99.90;;;;;;4971755;28;20031;-88
2023/02/13 04:07:39;;;;;;;65.20;40.05;;;1.20;99.90;;;;;;4971606;28;20070;-88
2023/02/13 04:10:08;;;;;;;65.20;40.05;;;1.60;99.90;;;;;;4971558;28;20050;-89
2023/02/13 04:12:51;;;;;;;68.10;41.47;;;1.20;99.90;;;;;;4971183;28;20027;-88
2023/02/13 04:15:20;;;;;;;66.65;39.92;;;1.10;99.90;;;;;;4971646;28;20488;-88
2023/02/13 04:17:54;;;;;;;63.70;39.35;;;1.10;99.90;;;;;;4971539;28;20030;-88
2023/02/13 04:20:20;;;;;;;63.92;39.33;;;1.30;99.90;;;;;;4971486;28;20039;-88
2023/02/13 04:22:47;;;;;;;70.43;41.83;;;1.20;99.90;;;;;;4971584;28;20073;-89
2023/02/13 04:25:15;;;;;;;68.97;40.25;;;1.20;99.90;;;;;;4971586;28;20053;-89
2023/02/13 04:27:41;;;;;;;65.97;38.25;;;1.20;99.90;;;;;;4985409;28;20030;-88
2023/02/13 04:30:08;;;;;;;57.92;35.80;;;1.60;99.90;;;;;;5012729;28;20030;-88
2023/02/13 04:32:34;;;;;;;59.15;35.17;;;1.20;99.90;;;;;;5039448;28;20520;-88
2023/02/13 04:34:59;;;;;;;59.22;35.58;;;1.20;99.90;;;;;;5051932;28;20029;-88
2023/02/13 04:37:25;;;;;;;56.38;34.58;;;1.60;99.90;;;;;;5052147;28;20059;-89
2023/02/13 04:39:51;;;;;;;57.72;35.20;;;1.20;99.90;;;;;;5052121;28;20045;-88
2023/02/13 04:42:16;;;;;;;59.63;35.00;;;1.70;99.90;;;;;;5051860;28;20108;-87
2023/02/13 04:44:42;;;;;;;59.92;35.65;;;1.50;99.90;;;;;;5051978;28;20083;-88
2023/02/13 04:47:07;;;;;;;60.72;36.00;;;1.60;99.90;;;;;;5052035;28;20029;-88
2023/02/13 04:49:33;;;;;;;61.67;35.80;;;1.00;99.90;;;;;;5052207;28;20100;-89
2023/02/13 04:51:59;;;;;;;58.80;34.47;;;1.40;99.90;;;;;;5052314;28;20051;-89
2023/02/13 04:54:24;;;;;;;62.08;36.05;;;1.40;99.90;;;;;;5049088;28;20275;-89
2023/02/13 04:56:50;;;;;;;61.67;36.55;;;0.90;99.90;;;;;;5032140;28;20049;-89
2023/02/13 04:59:16;;;;;;;54.47;32.65;;;1.00;99.90;;;;;;5014266;28;20056;-89
2023/02/13 05:01:41;;;;;;;58.63;34.50;;;1.00;99.90;;;;;;5014349;28;20029;-89
2023/02/13 05:04:07;;;;;;;55.20;32.88;;;1.50;99.90;;;;;;5032396;28;20034;-89
2023/02/13 05:06:32;;;;;;;60.72;34.33;;;1.00;99.90;;;;;;5017947;28;20029;-88
2023/02/13 05:08:58;;;;;;;57.40;33.60;;;1.00;99.90;;;;;;5035391;28;20405;-88
2023/02/13 05:11:24;;;;;;;61.00;35.42;;;1.00;99.90;;;;;;5017442;28;20028;-88
2023/02/13 05:13:49;;;;;;;56.38;33.13;;;1.00;99.90;;;;;;5017726;28;20119;-88
2023/02/13 05:16:15;;;;;;;53.42;32.58;;;1.00;99.90;;;;;;5035317;28;20021;-89
2023/02/13 05:18:40;;;;;;;53.28;31.50;;;1.10;99.90;;;;;;5035150;28;20035;-88
2023/02/13 05:23:50;;;;;;;50.08;31.10;;;0.70;99.90;;;;;;5035068;28;20103;-88
2023/02/13 05:26:16;;;;;;;51.67;31.17;;;0.80;99.90;;;;;;5034996;28;20045;-88
2023/02/13 05:31:25;;;;;;;52.92;30.42;;;0.90;99.90;;;;;;5039015;28;20059;-89
2023/02/13 05:33:51;;;;;;;49.90;30.80;;;0.90;99.90;;;;;;5037134;28;20116;-88
2023/02/13 05:36:16;;;;;;;53.38;30.92;;;1.00;99.90;;;;;;5054936;28;20106;-88
2023/02/13 05:38:42;;;;;;;51.85;30.60;;;1.10;99.90;;;;;;5054496;28;20136;-89
2023/02/13 05:41:08;;;;;;;53.40;29.52;;;1.10;99.90;;;;;;5037072;28;20339;-88
2023/02/13 05:43:33;;;;;;;49.38;30.63;;;1.50;99.90;;;;;;5054770;28;20482;-88
2023/02/13 05:46:07;;;;;;;51.95;30.33;;;0.90;99.90;;;;;;5054668;28;20021;-89
2023/02/13 05:48:32;;;;;;;54.05;31.92;;;1.10;99.90;;;;;;5054882;28;20036;-89
2023/02/13 05:50:58;;;;;;;50.22;30.42;;;1.00;99.90;;;;;;5036826;28;20074;-89
2023/02/13 05:53:24;;;;;;;51.92;29.95;;;1.30;99.90;;;;;;5036655;28;20108;-88
2023/02/13 05:55:51;;;;;;;51.45;30.35;;;1.00;99.90;;;;;;5039629;28;20025;-88
2023/02/13 05:58:18;;;;;;;55.17;32.00;;;1.00;99.90;;;;;;5034636;28;20056;-89
2023/02/13 06:00:43;;;;;;;51.50;32.45;;;1.40;99.90;;;;;;5034755;28;20058;-88
2023/02/13 06:03:09;;;;;;;54.08;32.38;;;1.00;99.90;;;;;;5034887;28;20490;-89
2023/02/13 06:05:35;;;;;;;55.47;33.00;;;1.00;99.90;;;;;;5034661;28;20067;-88
2023/02/13 06:08:00;;;;;;;49.17;31.77;;;1.60;99.90;;;;;;5034235;28;20051;-88
2023/02/13 06:10:26;;;;;;;53.90;33.30;;;1.50;99.90;;;;;;5034500;28;20041;-88
2023/02/13 06:12:51;;;;;;;56.40;32.60;;;1.00;99.90;;;;;;5016660;28;20062;-89
2023/02/13 06:15:17;;;;;;;59.25;33.38;;;1.00;99.90;;;;;;5016388;28;20029;-88
2023/02/13 06:17:43;;;;;;;55.58;33.20;;;0.90;99.90;;;;;;5034211;28;20066;-89
2023/02/13 06:20:09;;;;;;;55.83;31.00;;;0.90;99.90;;;;;;5034185;28;20523;-88
2023/02/13 06:22:34;;;;;;;49.88;30.60;;;0.90;99.90;;;;;;5033730;28;20029;-89
2023/02/13 06:25:00;;;;;;;53.05;30.25;;;0.90;99.90;;;;;;5016268;28;20021;-88
2023/02/13 06:27:26;;;;;;;52.00;30.30;;;1.20;99.90;;;;;;5034004;28;20474;-88
2023/02/13 06:29:51;;;;;;;49.55;29.38;;;1.00;99.90;;;;;;5034032;28;20087;-89
2023/02/13 06:32:17;;;;;;;53.10;29.25;;;1.10;99.90;;;;;;5033769;28;20053;-88
2023/02/13 06:34:42;;;;;;;51.92;30.08;;;1.10;99.90;;;;;;5033655;28;20370;-89
2023/02/13 06:37:08;;;;;;;53.13;29.30;;;1.20;99.90;;;;;;5033576;28;20064;-88
2023/02/13 06:39:34;;;;;;;49.67;28.85;;;1.30;99.90;;;;;;5033797;28;20069;-89
2023/02/13 06:41:59;;;;;;;52.13;29.80;;;1.80;99.90;;;;;;5033781;28;20131;-89
2023/02/13 06:44:25;;;;;;;51.35;28.45;;;1.90;99.90;;;;;;5033711;28;20083;-89
2023/02/13 06:46:50;;;;;;;47.63;28.17;;;1.50;99.90;;;;;;5033498;28;20021;-88
2023/02/13 06:49:16;;;;;;;45.22;26.42;;;1.80;99.90;;;;;;5033837;28;20505;-89
2023/02/13 06:51:41;;;;;;;44.88;27.23;;;1.50;99.90;;;;;;5033236;28;20022;-88
2023/02/13 06:54:07;;;;;;;53.65;29.45;;;1.60;99.90;;;;;;5033418;28;20053;-89
2023/02/13 06:56:33;;;;;;;51.58;30.45;;;2.00;99.90;;;;;;5015909;28;20029;-88
2023/02/13 06:58:59;;;;;;;51.40;29.58;;;2.30;99.90;;;;;;5033276;28;20033;-88
2023/02/13 07:01:24;;;;;;;49.47;29.95;;;1.40;99.90;;;;;;5033491;28;20100;-88
2023/02/13 07:03:50;;;;;;;49.20;29.55;;;1.30;99.90;;;;;;5015672;28;20300;-88
2023/02/13 07:06:17;;;;;;;54.10;30.40;;;1.80;99.90;;;;;;5015277;28;20030;-88
2023/02/13 07:08:43;;;;;;;61.97;36.30;;;1.90;99.90;;;;;;5033322;28;20108;-88
2023/02/13 07:11:16;;;;;;;60.10;34.00;;;1.80;99.90;;;;;;5015510;28;20108;-89
2023/02/13 07:13:42;;;;;;;57.50;34.72;;;1.50;99.90;;;;;;5033242;28;20025;-89
2023/02/13 07:16:07;;;;;;;57.28;33.80;;;2.00;99.90;;;;;;5015531;28;20022;-88
2023/02/13 07:18:33;;;;;;;69.88;40.33;;;2.20;99.90;;;;;;5015584;28;20064;-88
2023/02/13 07:20:59;;;;;;;71.32;41.00;;;1.50;99.90;;;;;;5032929;28;20097;-88
2023/02/13 07:23:24;;;;;;;73.50;42.20;;;1.40;99.90;;;;;;5015734;28;20025;-89
2023/02/13 07:25:50;;;;;;;69.03;41.80;;;1.40;99.90;;;;;;5015419;28;20035;-88
2023/02/13 07:28:15;;;;;;;78.07;43.78;;;1.50;99.90;;;;;;5032557;28;20499;-89
2023/02/13 07:30:41;;;;;;;72.22;43.03;;;1.50;99.90;;;;;;5014992;28;20034;-89
2023/02/13 07:33:08;;;;;;;77.50;43.50;;;1.70;99.90;;;;;;5033017;28;20087;-89
2023/02/13 07:35:35;;;;;;;81.30;45.20;;;2.10;99.90;;;;;;5052262;28;20027;-88
2023/02/13 07:38:00;;;;;;;78.30;45.08;;;1.70;99.90;;;;;;5052709;28;20029;-89
2023/02/13 07:40:26;;;;;;;76.35;43.92;;;1.70;99.90;;;;;;5052628;28;20405;-88
2023/02/13 07:42:52;;;;;;;74.00;43.78;;;2.10;99.90;;;;;;5052497;28;20021;-89
2023/02/13 07:45:18;;;;;;;77.40;44.58;;;2.00;99.90;;;;;;5034944;28;20029;-89
2023/02/13 07:47:43;;;;;;;85.05;45.28;;;2.40;99.90;;;;;;5052443;28;20424;-89
2023/02/13 07:50:10;;;;;;;84.10;44.88;;;1.90;99.90;;;;;;5052286;28;20052;-88
2023/02/13 07:52:36;;;;;;;92.75;44.10;;;2.00;99.90;;;;;;5052685;28;20385;-89
2023/02/13 07:55:04;;;;;;;91.47;45.00;;;2.00;99.90;;;;;;5044148;28;20113;-89
2023/02/13 07:57:30;;;;;;;90.50;45.08;;;2.60;99.90;;;;;;5014789;28;20088;-89
2023/02/13 07:59:56;;;;;;;80.82;44.05;;;2.60;99.90;;;;;;5032433;28;20544;-89
2023/02/13 08:02:22;;;;;;;84.35;44.97;;;2.50;99.90;;;;;;5032372;28;20064;-88
2023/02/13 08:04:48;;;;;;;85.75;45.83;;;2.80;99.90;;;;;;5032525;28;20061;-89
2023/02/13 08:07:15;;;;;;;88.03;43.75;;;3.60;99.90;;;;;;5032596;28;20037;-89
2023/02/13 08:12:29;;;;;;;84.63;45.05;;;3.90;99.90;;;;;;5032764;28;20032;-89
2023/02/13 08:14:55;;;;;;;97.53;42.85;;;5.80;99.90;;;;;;5014744;28;20148;-89
2023/02/13 08:17:20;;;;;;;98.57;45.08;;;6.40;99.90;;;;;;5032524;28;20030;-90
2023/02/13 08:19:46;;;;;;;110.10;44.00;;;7.30;99.90;;;;;;5032156;28;20034;-89
2023/02/13 08:22:11;;;;;;;90.82;41.47;;;9.30;99.90;;;;;;5015272;28;20025;-90
2023/02/13 08:24:37;;;;;;;83.95;42.50;;;11.70;99.90;;;;;;5014903;28;20497;-89
2023/02/13 08:27:03;;;;;;;91.93;41.85;;;13.00;99.90;;;;;;5014899;28;20076;-89
2023/02/13 08:29:28;;;;;;;90.25;41.13;;;14.70;99.90;;;;;;5014832;28;20021;-90
2023/02/13 08:31:54;;;;;;;83.72;43.25;;;16.00;99.90;;;;;;5040400;28;20053;-90
2023/02/13 08:34:20;;;;;;;102.63;43.60;;;16.70;99.90;;;;;;5052153;28;20021;-91
2023/02/13 08:36:45;;;;;;;90.80;43.25;;;17.60;99.90;;;;;;5035593;28;20029;-91
2023/02/13 08:39:11;;;;;;;87.18;44.30;;;18.60;99.90;;;;;;5056238;28;20029;-91
2023/02/13 08:41:37;;;;;;;76.15;43.20;;;19.20;99.90;;;;;;5058611;28;20048;-91
2023/02/13 08:44:02;;;;;;;95.45;46.55;;;18.70;99.90;;;;;;5057396;28;20047;-91
2023/02/13 08:46:28;;;;;;;77.13;45.30;;;19.90;99.90;;;;;;5056151;28;20036;-91
2023/02/13 08:48:54;;;;;;;84.28;44.70;;;19.90;99.90;;;;;;5037913;28;20025;-91
2023/02/13 08:51:20;;;;;;;83.97;46.65;;;20.50;99.90;;;;;;5038429;28;20028;-91
2023/02/13 08:53:45;;;;;;;79.90;46.05;;;21.60;99.90;;;;;;5038144;28;20025;-92
2023/02/13 08:56:11;;;;;;;70.75;45.05;;;21.70;99.90;;;;;;5020424;28;20036;-91
2023/02/13 08:58:37;;;;;;;80.28;46.75;;;21.90;99.90;;;;;;5035971;28;20112;-91
2023/02/13 09:01:07;;;;;;;76.20;45.83;;;22.00;99.90;;;;;;5035990;28;20026;-92
2023/02/13 09:03:33;;;;;;;68.15;44.30;;;22.40;99.90;;;;;;5035641;28;20065;-92
2023/02/13 09:05:59;;;;;;;49.15;33.35;;;23.00;99.90;;;;;;5035894;28;20104;-92
2023/02/13 09:08:25;;;;;;;46.05;32.45;;;23.40;99.90;;;;;;5035885;28;20528;-92
2023/02/13 09:11:00;;;;;;;56.65;31.88;;;24.00;99.90;;;;;;5035698;28;20021;-92
2023/02/13 09:13:26;;;;;;;46.13;31.40;;;24.40;99.90;;;;;;5035737;28;20030;-92
2023/02/13 09:15:52;;;;;;;47.70;35.10;;;24.40;99.90;;;;;;5035220;28;20371;-91
2023/02/13 09:18:18;;;;;;;59.97;41.10;;;24.00;99.90;;;;;;5017661;28;20029;-91
2023/02/13 09:20:44;;;;;;;46.47;36.15;;;24.40;99.90;;;;;;5017859;28;20037;-91
2023/02/13 09:23:09;;;;;;;53.78;37.92;;;24.70;99.90;;;;;;5035361;28;20089;-91
2023/02/13 09:25:35;;;;;;;61.17;42.28;;;24.50;99.90;;;;;;5035287;28;20033;-91
2023/02/13 09:28:01;;;;;;;61.42;44.97;;;25.10;99.90;;;;;;5035316;28;20056;-92
2023/02/13 09:30:26;;;;;;;54.00;41.95;;;25.80;99.90;;;;;;5034855;28;20030;-90
2023/02/13 09:32:53;;;;;;;55.03;40.10;;;26.10;99.90;;;;;;5051173;28;20057;-91
2023/02/13 09:35:20;;;;;;;53.65;42.47;;;26.20;99.90;;;;;;5054801;28;20444;-91
2023/02/13 09:37:46;;;;;;;58.28;44.38;;;26.30;99.90;;;;;;5054869;28;20083;-91
2023/02/13 09:40:29;;;;;;;52.97;41.00;;;26.70;99.90;;;;;;5037004;28;20037;-92
2023/02/13 09:43:10;;;;;;;55.92;43.20;;;27.40;99.90;;;;;;5054803;28;20032;-91
2023/02/13 09:45:37;;;;;;;51.00;39.53;;;27.00;99.90;;;;;;5054512;28;20374;-91
2023/02/13 09:48:05;;;;;;;52.25;40.58;;;27.20;99.90;;;;;;5054627;28;20021;-91
2023/02/13 09:50:33;;;;;;;48.20;39.80;;;27.60;99.90;;;;;;5054108;28;20036;-91
2023/02/13 09:53:00;;;;;;;49.30;39.15;;;27.60;99.90;;;;;;5054837;28;20109;-91
2023/02/13 09:55:41;;;;;;;43.25;37.13;;;27.10;99.90;;;;;;5025406;28;20113;-91
2023/02/13 09:58:35;;;;;;;45.08;37.72;;;27.90;99.90;;;;;;5034634;28;20030;-90
2023/02/13 10:01:04;;;;;;;47.28;40.20;;;28.20;99.90;;;;;;5024761;28;20041;-91
2023/02/13 10:03:45;;;;;;;43.55;36.92;;;28.60;99.90;;;;;;5034425;28;20042;-90
2023/02/13 10:06:21;;;;;;;41.05;36.45;;;27.60;99.90;;;;;;5034501;28;20482;-91
2023/02/13 10:09:02;;;;;;;42.88;36.63;;;27.50;99.90;;;;;;5034398;28;20021;-90
2023/02/13 10:11:39;;;;;;;43.00;36.13;;;27.90;99.90;;;;;;5034264;28;20032;-91
2023/02/13 10:14:50;;;;;;;41.92;36.20;;;28.10;99.90;;;;;;5016313;28;20034;-91
2023/02/13 10:17:28;;;;;;;42.55;37.08;;;28.60;99.90;;;;;;5034169;28;20424;-91
2023/02/13 10:20:00;;;;;;;44.22;37.42;;;28.80;99.90;;;;;;5034033;28;20042;-91
2023/02/13 10:22:50;;;;;;;44.47;37.72;;;29.10;99.90;;;;;;5034062;28;20029;-91
2023/02/13 10:25:20;;;;;;;42.90;37.28;;;29.00;99.90;;;;;;5034035;28;20097;-91
2023/02/13 10:28:11;;;;;;;44.42;37.95;;;28.60;99.90;;;;;;5033794;28;20048;-91
2023/02/13 10:30:50;;;;;;;43.53;37.67;;;28.00;99.90;;;;;;5033576;28;20029;-91
2023/02/13 10:33:42;;;;;;;42.55;37.45;;;28.20;99.90;;;;;;5052948;28;20116;-90
2023/02/13 10:36:32;;;;;;;41.60;37.05;;;29.20;99.90;;;;;;5054028;28;20029;-91
2023/02/13 10:39:17;;;;;;;41.75;36.65;;;28.10;99.90;;;;;;5053583;28;20041;-91
2023/02/13 10:42:15;;;;;;;39.95;35.85;;;29.10;99.90;;;;;;5053568;28;20025;-91
2023/02/13 10:45:19;;;;;;;42.70;36.75;;;29.70;99.90;;;;;;4991672;28;20089;-91
2023/02/13 10:47:56;;;;;;;40.13;35.05;;;29.50;99.90;;;;;;4975664;28;20046;-91
2023/02/13 10:50:42;;;;;;;38.10;34.05;;;30.50;99.90;;;;;;4992074;28;20030;-91
2023/02/13 10:53:22;;;;;;;39.47;35.33;;;30.70;99.90;;;;;;4992123;28;20030;-91
2023/02/13 10:56:17;;;;;;;39.67;35.58;;;30.80;99.90;;;;;;4977694;28;20479;-91
2023/02/13 10:59:09;;;;;;;38.25;34.30;;;31.40;99.90;;;;;;4972199;28;20058;-91
2023/02/13 11:01:56;;;;;;;38.95;34.60;;;30.80;99.90;;;;;;4971982;28;20550;-91
2023/02/13 11:04:22;;;;;;;41.92;37.38;;;30.80;99.90;;;;;;4972347;28;20030;-91
2023/02/13 11:06:59;;;;;;;38.10;34.10;;;31.20;99.90;;;;;;4972396;28;20043;-91
2023/02/13 11:09:25;;;;;;;39.20;35.10;;;30.70;99.90;;;;;;4972456;28;20357;-91
2023/02/13 11:11:51;;;;;;;39.03;34.78;;;30.90;99.90;;;;;;4972090;28;20027;-91
2023/02/13 11:14:19;;;;;;;34.88;31.17;;;30.80;99.90;;;;;;4972127;28;20039;-91
2023/02/13 11:16:53;;;;;;;36.55;32.85;;;31.10;99.90;;;;;;4956125;28;20140;-92
2023/02/13 11:19:43;;;;;;;32.13;28.67;;;31.10;99.90;;;;;;4960171;28;20038;-91
2023/02/13 11:22:24;;;;;;;34.38;30.52;;;31.80;99.90;;;;;;5013228;28;20058;-91
2023/02/13 11:24:54;;;;;;;34.22;30.20;;;32.30;99.90;;;;;;5013158;28;20026;-91
2023/02/13 11:27:27;;;;;;;31.02;27.83;;;32.40;99.90;;;;;;5012799;28;20026;-91
2023/02/13 11:29:58;;;;;;;33.45;29.38;;;32.60;99.90;;;;;;5013269;28;20073;-91
2023/02/13 11:32:26;;;;;;;31.35;28.17;;;32.40;99.90;;;;;;5036966;28;20052;-91
2023/02/13 11:34:54;;;;;;;31.42;27.73;;;32.60;99.90;;;;;;5052657;28;20409;-91
2023/02/13 11:37:26;;;;;;;31.30;27.95;;;32.40;99.90;;;;;;5052715;28;20029;-91
2023/02/13 11:39:57;;;;;;;32.05;28.05;;;32.50;99.90;;;;;;5052710;28;20061;-92
2023/02/13 11:42:30;;;;;;;31.60;27.80;;;33.20;99.90;;;;;;5052286;28;20025;-89
2023/02/13 11:45:02;;;;;;;33.42;30.02;;;32.80;99.90;;;;;;5052533;28;20537;-89
2023/02/13 11:47:42;;;;;;;32.30;28.95;;;32.50;99.90;;;;;;5052582;28;20040;-88
2023/02/13 11:50:23;;;;;;;32.03;28.48;;;33.00;99.90;;;;;;5052510;28;20021;-89
2023/02/13 11:52:59;;;;;;;31.85;28.40;;;31.60;99.90;;;;;;5052777;28;20124;-89
2023/02/13 11:56:20;;;;;;;28.63;25.60;;;31.40;99.90;;;;;;5040803;28;20025;-89
2023/02/13 11:58:45;;;;;;;31.52;27.45;;;32.40;99.90;;;;;;4935871;29;20035;-89
2023/02/13 12:01:20;;;;;;;27.00;24.10;;;32.10;99.90;;;;;;4952271;29;20122;-89
2023/02/13 12:04:15;;;;;;;19.27;17.45;;;32.80;99.90;;;;;;4936219;29;20043;-89
2023/02/13 12:06:56;;;;;;;18.38;16.40;;;32.40;99.90;;;;;;4952411;29;20519;-88
2023/02/13 12:09:21;;;;;;;19.20;17.33;;;31.70;99.90;;;;;;4936301;29;20045;-89
2023/02/13 12:11:52;;;;;;;17.02;14.38;;;31.40;99.90;;;;;;4951929;29;20106;-88
2023/02/13 12:14:41;;;;;;;14.27;12.50;;;30.80;99.90;;;;;;4954426;28;20028;-88
2023/02/13 12:17:16;;;;;;;16.35;13.77;;;31.20;99.90;;;;;;4940064;29;20114;-88
2023/02/13 12:19:45;;;;;;;13.73;12.00;;;31.20;99.90;;;;;;4955968;29;20074;-89
2023/02/13 12:22:13;;;;;;;12.13;10.93;;;29.90;99.90;;;;;;4956284;29;20071;-88
2023/02/13 12:25:00;;;;;;;9.65;8.65;;;30.30;99.90;;;;;;4956081;29;20038;-88
2023/02/13 12:27:51;;;;;;;9.38;7.85;;;29.70;99.90;;;;;;4956109;28;20168;-88
2023/02/13 12:30:43;;;;;;;10.35;8.20;;;28.30;99.90;;;;;;4955612;29;20047;-88
2023/02/13 12:33:21;;;;;;;10.60;8.77;;;29.40;99.90;;;;;;4879923;29;20080;-89
2023/02/13 12:35:58;;;;;;;9.63;8.63;;;27.70;99.90;;;;;;4924725;29;20043;-88
2023/02/13 12:38:40;;;;;;;10.63;8.68;;;27.90;99.90;;;;;;4936456;29;20031;-88
2023/02/13 12:41:22;;;;;;;10.88;8.85;;;27.80;99.90;;;;;;4936211;29;20592;-89
2023/02/13 12:43:51;;;;;;;10.05;9.05;;;26.90;99.90;;;;;;4936494;29;20083;-88
2023/02/13 12:46:51;;;;;;;10.35;9.27;;;27.10;99.90;;;;;;4936464;29;20040;-88
2023/02/13 12:49:22;;;;;;;10.45;8.75;;;27.10;99.90;;;;;;4936312;29;20082;-88
2023/02/13 12:52:15;;;;;;;10.85;9.20;;;26.50;99.90;;;;;;4936324;29;20089;-88
2023/02/13 12:55:01;;;;;;;9.65;8.25;;;26.30;99.90;;;;;;4940749;29;20027;-88
2023/02/13 12:58:05;;;;;;;10.13;9.13;;;26.00;99.90;;;;;;4955408;28;20051;-87
2023/02/13 13:00:47;;;;;;;9.50;8.60;;;26.30;99.90;;;;;;4955156;28;20035;-88
2023/02/13 13:03:15;;;;;;;12.60;9.50;;;26.40;99.90;;;;;;4955444;28;20062;-88
2023/02/13 13:06:09;;;;;;;11.50;9.85;;;25.70;99.90;;;;;;4955250;28;20050;-88
2023/02/13 13:08:55;;;;;;;11.05;8.90;;;25.90;99.90;;;;;;4954886;28;20038;-88
2023/02/13 13:11:51;;;;;;;10.48;9.35;;;26.10;99.90;;;;;;5035413;28;20033;-88
2023/02/13 13:14:31;;;;;;;11.18;9.55;;;26.20;99.90;;;;;;5035195;28;20032;-88
2023/02/13 13:17:21;;;;;;;11.30;9.80;;;25.70;99.90;;;;;;5035253;28;20045;-88
2023/02/13 13:20:14;;;;;;;11.68;10.23;;;26.10;99.90;;;;;;5035291;28;20042;-90
2023/02/13 13:23:21;;;;;;;11.82;9.98;;;26.40;99.90;;;;;;5035010;28;20029;-91
2023/02/13 13:26:08;;;;;;;11.02;9.80;;;26.30;99.90;;;;;;4953707;28;20043;-90
2023/02/13 13:28:38;;;;;;;11.38;9.70;;;26.00;99.90;;;;;;4954878;28;20035;-91
2023/02/13 13:31:05;;;;;;;11.38;9.32;;;25.20;99.90;;;;;;4954613;29;20098;-92
2023/02/13 13:33:32;;;;;;;12.30;10.57;;;25.10;99.90;;;;;;4954737;29;20417;-91
2023/02/13 13:36:13;;;;;;;12.10;10.45;;;25.20;99.90;;;;;;4954745;29;20047;-90
2023/02/13 13:38:51;;;;;;;11.40;9.82;;;25.80;99.90;;;;;;4954307;29;20028;-91